Time;durP1;ratioP1;P1;durP2;ratioP2;P2;SDS_P1;SDS_P2;PMS_P1;PMS_P2;Temp;Humidity;BMP_temperature;BMP_pressure;BME280_temperature;BME280_humidity;BME280_pressure;Samples;Min_cycle;Max_cycle;Signal;HPM_P1;HPM_P2
2023/04/17 00:01:07;;;;;;;6.10;1.98;;;;;;;11.83;65.82;101199.28;4999709;28;20045;-52
2023/04/17 00:03:34;;;;;;;2.58;1.70;;;;;;;11.81;66.02;101201.00;4999310;28;20070;-55
2023/04/17 00:06:01;;;;;;;3.72;1.58;;;;;;;11.79;66.43;101205.28;5000837;28;20050;-53
2023/04/17 00:08:27;;;;;;;3.25;2.03;;;;;;;11.75;65.94;101206.13;4989603;28;20121;-51
2023/04/17 00:10:55;;;;;;;5.60;2.17;;;;;;;11.74;65.81;101209.56;4978833;28;20074;-52
2023/04/17 00:13:32;;;;;;;4.20;1.92;;;;;;;11.72;65.93;101211.25;4973526;28;20046;-51
2023/04/17 00:15:59;;;;;;;5.78;1.85;;;;;;;11.69;66.80;101211.25;4999088;28;20172;-53
2023/04/17 00:18:26;;;;;;;3.35;1.70;;;;;;;11.67;65.91;101207.75;4994655;28;20074;-52
2023/04/17 00:20:55;;;;;;;2.55;1.40;;;;;;;11.66;66.53;101208.63;4997023;28;20072;-52
2023/04/17 00:23:24;;;;;;;5.50;2.28;;;;;;;11.67;67.13;101206.03;4997620;28;20395;-54
2023/04/17 00:25:53;;;;;;;3.13;1.55;;;;;;;11.68;65.62;101207.78;4996213;28;20505;-53
2023/04/17 00:28:22;;;;;;;5.15;1.48;;;;;;;11.69;65.56;101206.06;4999292;28;20046;-54
2023/04/17 00:30:50;;;;;;;2.50;1.00;;;;;;;11.69;66.72;101206.06;4994080;28;20058;-53
2023/04/17 00:33:18;;;;;;;4.47;2.35;;;;;;;11.70;65.75;101200.00;4998387;28;20607;-50
2023/04/17 00:35:47;;;;;;;2.83;2.10;;;;;;;11.66;65.50;101201.69;4994975;28;20405;-53
2023/04/17 00:38:14;;;;;;;2.90;1.45;;;;;;;11.64;66.92;101207.72;5001159;28;20038;-53
2023/04/17 00:40:45;;;;;;;4.07;1.20;;;;;;;11.63;66.87;101203.38;4998447;28;20638;-52
2023/04/17 00:43:12;;;;;;;2.90;1.60;;;;;;;11.60;67.23;101201.63;5000805;28;20052;-54
2023/04/17 00:45:41;;;;;;;2.42;1.25;;;;;;;11.59;65.71;101201.63;5003829;28;20406;-53
2023/04/17 00:48:12;;;;;;;3.60;1.30;;;;;;;11.59;66.31;101204.22;5007999;28;20052;-53
2023/04/17 00:50:41;;;;;;;2.30;1.20;;;;;;;11.57;66.24;101194.69;4994181;28;20552;-53
2023/04/17 00:53:11;;;;;;;3.80;1.70;;;;;;;11.53;66.96;101195.50;4982093;28;20049;-53
2023/04/17 00:55:42;;;;;;;4.35;1.23;;;;;;;11.52;66.32;101200.69;4984285;28;20074;-54
2023/04/17 00:58:10;;;;;;;4.50;2.22;;;;;;;11.50;66.23;101197.19;4978155;28;20556;-53
2023/04/17 01:00:37;;;;;;;3.83;1.25;;;;;;;11.49;66.53;101204.13;4984443;28;20054;-53
2023/04/17 01:03:04;;;;;;;3.58;1.65;;;;;;;11.48;67.19;101191.97;4995334;28;20045;-54
2023/04/17 01:05:34;;;;;;;2.60;1.50;;;;;;;11.47;67.32;101192.81;4998114;28;20105;-55
2023/04/17 01:08:00;;;;;;;4.32;1.77;;;;;;;11.48;67.77;101191.13;4984862;28;20116;-53
2023/04/17 01:10:27;;;;;;;4.10;1.55;;;;;;;11.48;66.25;101186.78;4988032;28;20046;-53
2023/04/17 01:13:03;;;;;;;3.55;1.80;;;;;;;11.46;67.57;101191.09;4978736;28;20126;-54
2023/04/17 01:15:30;;;;;;;2.25;1.30;;;;;;;11.48;67.69;101191.97;4978427;28;20046;-52
2023/04/17 01:17:56;;;;;;;4.72;2.05;;;;;;;11.49;67.27;101196.31;4983604;28;20506;-52
2023/04/17 01:20:24;;;;;;;5.32;2.38;;;;;;;11.50;67.03;101200.66;4984093;28;20050;-52
2023/04/17 01:22:51;;;;;;;2.15;1.45;;;;;;;11.52;67.62;101204.13;4983831;28;20050;-54
2023/04/17 01:25:18;;;;;;;4.72;1.70;;;;;;;11.50;67.39;101195.47;4983337;28;20086;-53
2023/04/17 01:27:45;;;;;;;3.30;1.27;;;;;;;11.50;66.99;101205.84;4981640;28;20506;-51
2023/04/17 01:30:12;;;;;;;5.82;2.03;;;;;;;11.46;68.16;101204.06;4984729;28;20705;-52
2023/04/17 01:32:38;;;;;;;4.70;2.22;;;;;;;11.45;67.41;101207.50;4984482;28;20050;-51
2023/04/17 01:35:06;;;;;;;6.13;2.13;;;;;;;11.43;67.81;101198.84;4985843;28;20137;-52
2023/04/17 01:37:32;;;;;;;3.80;2.05;;;;;;;11.42;68.38;101197.94;4981395;28;20249;-52
2023/04/17 01:39:59;;;;;;;5.47;2.47;;;;;;;11.43;67.75;101198.84;5005835;28;20064;-51
2023/04/17 01:42:26;;;;;;;3.85;2.53;;;;;;;11.44;68.10;101200.56;5002203;28;20080;-53
2023/04/17 01:44:52;;;;;;;7.68;2.08;;;;;;;11.43;68.22;101197.13;5001525;28;20125;-54
2023/04/17 01:47:19;;;;;;;3.75;2.05;;;;;;;11.43;68.35;101194.53;5006688;28;20120;-54
2023/04/17 01:49:46;;;;;;;5.65;1.90;;;;;;;11.43;67.26;101193.66;5005543;28;20042;-52
2023/04/17 01:52:12;;;;;;;4.50;2.53;;;;;;;11.42;67.79;101186.72;5007587;28;20076;-56
2023/04/17 01:54:39;;;;;;;5.32;2.05;;;;;;;11.41;67.12;101192.75;5005328;28;20136;-53
2023/04/17 01:57:05;;;;;;;5.50;2.08;;;;;;;11.41;67.29;101197.94;5006987;28;20101;-54
2023/04/17 01:59:32;;;;;;;5.38;1.98;;;;;;;11.39;67.48;101207.44;5009267;28;20517;-49
2023/04/17 02:01:58;;;;;;;8.07;2.55;;;;;;;11.34;68.74;101204.78;5004565;28;20133;-48
2023/04/17 02:04:25;;;;;;;4.57;2.47;;;;;;;11.30;68.03;101209.06;5006530;28;20053;-53
2023/04/17 02:06:52;;;;;;;5.07;2.03;;;;;;;11.26;68.45;101202.09;5005471;28;20054;-55
2023/04/17 02:09:19;;;;;;;4.68;2.22;;;;;;;11.22;69.13;101189.94;5003712;28;20081;-53
2023/04/17 02:11:45;;;;;;;5.03;2.13;;;;;;;11.14;68.59;101175.97;5004667;28;20049;-52
2023/04/17 02:14:12;;;;;;;4.32;2.45;;;;;;;11.08;68.66;101181.94;5001325;28;20042;-54
2023/04/17 02:16:44;;;;;;;6.15;2.40;;;;;;;11.05;69.27;101185.38;5002529;28;20105;-54
2023/04/17 02:19:11;;;;;;;4.40;2.40;;;;;;;11.04;69.72;101180.19;5004029;28;20054;-56
2023/04/17 02:21:38;;;;;;;6.55;2.88;;;;;;;11.02;69.85;101200.88;5000015;28;20050;-55
2023/04/17 02:24:05;;;;;;;5.45;2.63;;;;;;;11.02;68.86;101192.25;5006221;28;20136;-50
2023/04/17 02:26:32;;;;;;;8.93;3.10;;;;;;;11.02;68.72;101198.28;5003716;28;20076;-54
2023/04/17 02:28:59;;;;;;;5.93;4.10;;;;;;;11.04;69.73;101204.38;5002451;28;20629;-53
2023/04/17 02:31:26;;;;;;;5.50;2.60;;;;;;;11.02;69.93;101208.66;5001607;28;20046;-54
2023/04/17 02:33:52;;;;;;;7.18;2.90;;;;;;;11.02;69.92;101208.66;5002862;28;20046;-53
2023/04/17 02:36:19;;;;;;;5.18;2.60;;;;;;;11.02;69.47;101211.25;5003539;28;20100;-52
2023/04/17 02:38:46;;;;;;;5.68;2.70;;;;;;;11.04;69.17;101211.28;5003893;28;20080;-54
2023/04/17 02:41:12;;;;;;;4.57;2.17;;;;;;;11.05;69.09;101213.91;5005229;28;20062;-54
2023/04/17 02:43:39;;;;;;;6.63;2.63;;;;;;;11.05;69.77;101202.69;4999090;28;20549;-51
2023/04/17 02:46:06;;;;;;;5.82;2.55;;;;;;;11.04;69.28;101206.09;5002375;28;20089;-52
2023/04/17 02:48:32;;;;;;;5.53;2.30;;;;;;;11.01;69.98;101201.75;5003395;28;21245;-49
2023/04/17 02:50:59;;;;;;;5.57;2.72;;;;;;;11.00;70.16;101200.00;5000456;28;20085;-53
2023/04/17 02:53:25;;;;;;;5.28;2.67;;;;;;;10.99;70.53;101211.25;5003624;28;20563;-51
2023/04/17 02:55:52;;;;;;;4.63;2.53;;;;;;;10.99;69.50;101211.25;5004531;28;20077;-54
2023/04/17 02:58:19;;;;;;;4.25;2.50;;;;;;;10.99;69.97;101212.94;5003452;28;20049;-57
2023/04/17 03:00:45;;;;;;;8.30;2.38;;;;;;;10.99;70.47;101213.84;5003446;28;20053;-53
2023/04/17 03:03:12;;;;;;;10.25;3.78;;;;;;;10.99;69.53;101213.84;5004864;28;20050;-55
2023/04/17 03:05:39;;;;;;;8.38;3.42;;;;;;;10.97;69.51;101215.53;4998088;28;20042;-55
2023/04/17 03:08:06;;;;;;;7.60;3.00;;;;;;;10.94;70.53;101215.47;5001647;28;20119;-56
2023/04/17 03:10:32;;;;;;;4.72;2.50;;;;;;;10.90;71.10;101218.88;5000099;28;20061;-54
2023/04/17 03:12:59;;;;;;;6.32;2.60;;;;;;;10.88;70.41;101212.81;4975336;28;20105;-51
2023/04/17 03:15:25;;;;;;;5.95;2.20;;;;;;;10.86;70.12;101227.44;4980233;28;20112;-55
2023/04/17 03:17:52;;;;;;;4.38;2.38;;;;;;;10.84;71.12;101223.97;4983159;28;20469;-54
2023/04/17 03:20:19;;;;;;;5.07;2.58;;;;;;;10.83;70.68;101227.38;4983867;28;20164;-52
2023/04/17 03:22:46;;;;;;;3.85;1.80;;;;;;;10.77;70.59;101226.47;4976841;28;20133;-54
2023/04/17 03:25:12;;;;;;;4.68;1.48;;;;;;;10.74;71.11;101225.56;4976945;28;20129;-55
2023/04/17 03:27:39;;;;;;;4.72;1.67;;;;;;;10.72;70.74;101228.13;4979707;28;20073;-55
2023/04/17 03:30:07;;;;;;;9.00;1.75;;;;;;;10.69;71.49;101235.84;4977289;28;20130;-55
2023/04/17 03:32:33;;;;;;;5.18;1.65;;;;;;;10.65;71.10;101239.22;4978142;28;20074;-52
2023/04/17 03:35:00;;;;;;;4.75;2.72;;;;;;;10.63;71.51;101236.63;4981222;28;20050;-53
2023/04/17 03:37:26;;;;;;;5.90;2.08;;;;;;;10.59;71.38;101233.94;4981482;28;20050;-54
2023/04/17 03:39:54;;;;;;;2.83;1.58;;;;;;;10.56;71.45;101228.69;4977265;28;20150;-54
2023/04/17 03:42:21;;;;;;;4.82;1.85;;;;;;;10.52;71.86;101236.44;4979589;28;20042;-55
2023/04/17 03:44:47;;;;;;;4.70;2.00;;;;;;;10.51;72.46;101242.44;4982429;28;20506;-52
2023/04/17 03:47:14;;;;;;;5.18;2.72;;;;;;;10.43;73.01;101233.66;4979898;28;20083;-57
2023/04/17 03:49:40;;;;;;;4.22;1.88;;;;;;;10.43;72.42;101227.63;4982016;28;20121;-53
2023/04/17 03:52:07;;;;;;;4.15;1.95;;;;;;;10.41;72.42;101214.63;4983231;28;20069;-59
2023/04/17 03:54:34;;;;;;;7.40;2.38;;;;;;;10.41;72.59;101220.66;4983124;28;20069;-54
2023/04/17 03:57:02;;;;;;;3.25;1.60;;;;;;;10.44;72.45;101225.06;4979631;28;20124;-55
2023/04/17 03:59:30;;;;;;;8.05;2.35;;;;;;;10.44;72.07;101219.88;4979433;28;20050;-56
2023/04/17 04:01:57;;;;;;;4.15;1.85;;;;;;;10.43;71.86;101210.34;4978780;28;20128;-53
2023/04/17 04:04:24;;;;;;;6.63;2.30;;;;;;;10.44;72.22;101213.81;4975758;28;20053;-54
2023/04/17 04:06:53;;;;;;;5.70;2.20;;;;;;;10.46;71.83;101210.44;4983251;28;20050;-54
2023/04/17 04:09:20;;;;;;;4.88;1.83;;;;;;;10.45;72.15;101210.41;4982111;28;20050;-54
2023/04/17 04:11:47;;;;;;;5.13;1.75;;;;;;;10.44;71.94;101214.69;4984607;28;20047;-51
2023/04/17 04:14:13;;;;;;;3.95;1.67;;;;;;;10.43;72.21;101207.75;4975569;28;20096;-56
2023/04/17 04:16:40;;;;;;;5.28;2.40;;;;;;;10.45;72.46;101210.41;4980672;28;20093;-55
2023/04/17 04:19:07;;;;;;;3.70;1.38;;;;;;;10.47;72.73;101208.72;4983520;28;20054;-55
2023/04/17 04:21:34;;;;;;;4.50;2.05;;;;;;;10.46;71.96;101197.47;4979236;28;20063;-54
2023/04/17 04:24:01;;;;;;;4.68;1.75;;;;;;;10.44;72.34;101203.44;4976391;28;20054;-53
2023/04/17 04:26:28;;;;;;;4.45;1.42;;;;;;;10.40;72.70;101199.91;4981341;28;20065;-52
2023/04/17 04:28:55;;;;;;;6.53;1.73;;;;;;;10.37;72.17;101207.66;4979284;28;20070;-54
2023/04/17 04:31:24;;;;;;;4.32;1.30;;;;;;;10.36;72.46;101205.91;4980274;28;20039;-55
2023/04/17 04:33:54;;;;;;;7.32;1.85;;;;;;;10.34;72.62;101197.25;4975619;28;20054;-54
2023/04/17 04:36:21;;;;;;;4.97;1.95;;;;;;;10.33;72.31;101195.50;4981170;28;20061;-53
2023/04/17 04:38:49;;;;;;;5.40;2.28;;;;;;;10.32;72.06;101191.16;4983680;28;20058;-55
2023/04/17 04:41:16;;;;;;;6.22;1.67;;;;;;;10.33;72.67;101193.78;4980848;28;20129;-55
2023/04/17 04:43:43;;;;;;;7.07;2.42;;;;;;;10.35;72.22;101194.69;4979625;28;20139;-54
2023/04/17 04:46:10;;;;;;;9.63;1.92;;;;;;;10.36;72.64;101195.53;4978889;28;20051;-54
2023/04/17 04:48:37;;;;;;;5.35;2.95;;;;;;;10.37;72.41;101186.94;4981916;28;21316;-55
2023/04/17 04:51:06;;;;;;;4.70;2.63;;;;;;;10.35;72.82;101183.44;4984944;28;20604;-50
2023/04/17 04:53:33;;;;;;;9.35;4.20;;;;;;;10.35;72.59;101188.63;4984468;28;20073;-52
2023/04/17 04:56:00;;;;;;;10.68;4.93;;;;;;;10.36;72.34;101195.53;4983554;28;20138;-55
2023/04/17 04:58:28;;;;;;;12.20;6.80;;;;;;;10.36;72.17;101192.94;4984730;28;20125;-52
2023/04/17 05:00:55;;;;;;;11.50;5.20;;;;;;;10.35;72.47;101191.22;4980293;28;20132;-52
2023/04/17 05:03:22;;;;;;;9.02;4.90;;;;;;;10.36;72.38;101193.84;4982579;28;20053;-56
2023/04/17 05:05:49;;;;;;;9.40;4.50;;;;;;;10.36;72.67;101196.44;4979687;28;20108;-55
2023/04/17 05:08:16;;;;;;;8.13;3.97;;;;;;;10.38;72.99;101199.03;4982408;28;20117;-54
2023/04/17 05:10:44;;;;;;;6.47;3.78;;;;;;;10.38;73.03;101204.22;4980664;28;20450;-54
2023/04/17 05:13:11;;;;;;;7.45;2.20;;;;;;;10.39;72.81;101208.53;4985208;28;20453;-55
2023/04/17 05:15:37;;;;;;;4.00;2.63;;;;;;;10.40;72.54;101212.88;4987771;28;20406;-52
2023/04/17 05:18:04;;;;;;;5.43;1.95;;;;;;;10.40;72.87;101218.94;4977741;28;20054;-54
2023/04/17 05:20:31;;;;;;;4.22;2.10;;;;;;;10.41;72.66;101230.19;4980780;28;20042;-57
2023/04/17 05:22:57;;;;;;;4.90;2.53;;;;;;;10.41;72.48;101235.34;4984275;28;20057;-52
2023/04/17 05:25:24;;;;;;;4.80;2.10;;;;;;;10.43;72.57;101249.19;4981179;28;20149;-54
2023/04/17 05:27:51;;;;;;;6.85;2.42;;;;;;;10.44;72.61;101250.97;4982633;28;20663;-53
2023/04/17 05:30:17;;;;;;;3.75;2.15;;;;;;;10.46;73.02;101258.75;4982567;28;20148;-57
2023/04/17 05:32:44;;;;;;;6.50;2.72;;;;;;;10.47;72.32;101261.38;4979647;28;20085;-54
2023/04/17 05:35:10;;;;;;;5.10;2.00;;;;;;;10.48;72.75;101257.97;4978109;28;20499;-52
2023/04/17 05:37:37;;;;;;;5.07;2.35;;;;;;;10.50;72.21;101258.84;4980109;28;20133;-57
2023/04/17 05:40:05;;;;;;;6.07;2.88;;;;;;;10.51;72.78;101263.19;4978798;28;20469;-53
2023/04/17 05:42:33;;;;;;;5.00;2.15;;;;;;;10.51;72.54;101267.50;4978183;28;20042;-54
2023/04/17 05:45:00;;;;;;;5.82;3.33;;;;;;;10.50;72.85;101271.81;4983399;28;20046;-51
2023/04/17 05:47:27;;;;;;;5.72;2.03;;;;;;;10.48;72.80;101268.31;4982074;28;20192;-54
2023/04/17 05:49:56;;;;;;;5.10;2.15;;;;;;;10.50;72.99;101276.97;4979326;28;20141;-57
2023/04/17 05:52:24;;;;;;;5.68;2.22;;;;;;;10.52;73.09;101285.66;4981122;28;20152;-55
2023/04/17 05:54:50;;;;;;;7.38;2.47;;;;;;;10.54;73.36;101283.97;4976701;28;20136;-53
2023/04/17 05:57:17;;;;;;;6.28;3.30;;;;;;;10.57;72.46;101282.28;4975725;28;20458;-51
2023/04/17 05:59:44;;;;;;;5.85;2.20;;;;;;;10.58;72.49;101274.53;4985600;28;20162;-54
2023/04/17 06:02:11;;;;;;;8.02;3.28;;;;;;;10.62;72.58;101285.81;4981355;28;20462;-51
2023/04/17 06:04:37;;;;;;;6.97;3.03;;;;;;;10.65;72.75;101285.88;4986644;28;20081;-53
2023/04/17 06:07:05;;;;;;;5.97;2.63;;;;;;;10.67;72.24;101286.75;4983261;28;21037;-55
2023/04/17 06:09:32;;;;;;;8.05;2.53;;;;;;;10.69;72.53;101290.25;4980375;28;20054;-54
2023/04/17 06:11:58;;;;;;;5.75;2.10;;;;;;;10.71;72.77;101296.31;4985168;28;20054;-54
2023/04/17 06:14:26;;;;;;;7.57;3.47;;;;;;;10.71;72.43;101296.31;4984744;28;20137;-56
2023/04/17 06:16:52;;;;;;;4.15;2.28;;;;;;;10.70;73.02;101299.75;4983160;28;20074;-53
2023/04/17 06:19:19;;;;;;;4.70;2.20;;;;;;;10.68;73.23;101298.88;4980524;28;20101;-54
2023/04/17 06:21:46;;;;;;;5.53;2.22;;;;;;;10.67;73.15;101304.88;4977554;28;20054;-55
2023/04/17 06:24:12;;;;;;;6.80;2.50;;;;;;;10.70;73.29;101304.94;4980572;28;20096;-55
2023/04/17 06:26:39;;;;;;;7.55;3.78;;;;;;;10.71;73.25;101305.84;4981602;28;20051;-51
2023/04/17 06:29:07;;;;;;;5.55;2.15;;;;;;;10.72;73.51;101298.09;4981368;28;20541;-54
2023/04/17 06:31:34;;;;;;;5.63;2.53;;;;;;;10.74;73.51;101311.06;4980082;28;20046;-55
2023/04/17 06:34:00;;;;;;;11.20;3.03;;;;;;;10.77;73.82;101311.09;4984961;28;20722;-51
2023/04/17 06:36:27;;;;;;;6.82;2.28;;;;;;;10.79;73.66;101310.31;4980057;28;20081;-54
2023/04/17 06:38:54;;;;;;;7.68;3.15;;;;;;;10.84;72.89;101317.28;4983722;28;20451;-56
2023/04/17 06:41:21;;;;;;;4.82;2.20;;;;;;;10.86;72.82;101313.84;4984801;28;20058;-57
2023/04/17 06:43:47;;;;;;;7.97;3.10;;;;;;;10.90;73.76;101325.13;4985400;28;20081;-54
2023/04/17 06:46:14;;;;;;;6.65;3.90;;;;;;;10.91;73.54;101324.31;4981591;28;24446;-54
2023/04/17 06:48:40;;;;;;;7.90;2.55;;;;;;;10.95;73.20;101320.91;4977872;28;20113;-56
2023/04/17 06:51:07;;;;;;;9.13;2.75;;;;;;;10.97;73.89;101324.41;4979555;28;20057;-53
2023/04/17 06:53:34;;;;;;;7.22;2.85;;;;;;;11.02;73.87;101322.75;4975392;28;20128;-52
2023/04/17 06:56:00;;;;;;;7.60;3.08;;;;;;;11.07;73.41;101324.56;4977250;28;20106;-52
2023/04/17 06:58:27;;;;;;;11.20;3.50;;;;;;;11.11;73.15;101326.34;4977039;28;20054;-56
2023/04/17 07:00:54;;;;;;;6.93;2.95;;;;;;;11.14;73.05;101322.06;4976870;28;20078;-53
2023/04/17 07:03:21;;;;;;;9.35;3.40;;;;;;;11.20;72.80;101326.47;4980304;28;20155;-52
2023/04/17 07:05:49;;;;;;;7.68;2.72;;;;;;;11.23;73.86;101323.94;4977398;28;20046;-53
2023/04/17 07:08:17;;;;;;;7.75;3.03;;;;;;;11.26;73.85;101329.19;4975458;28;20141;-52
2023/04/17 07:10:44;;;;;;;6.80;2.92;;;;;;;11.30;72.93;101335.28;4973803;28;20510;-54
2023/04/17 07:13:11;;;;;;;7.32;3.88;;;;;;;11.33;73.40;101337.91;4981335;28;20465;-51
2023/04/17 07:15:37;;;;;;;7.43;3.10;;;;;;;11.37;72.94;101333.63;4979396;28;20050;-56
2023/04/17 07:18:04;;;;;;;8.80;2.90;;;;;;;11.41;73.48;101344.09;4979847;28;20042;-55
2023/04/17 07:20:31;;;;;;;9.32;3.03;;;;;;;11.44;73.75;101336.34;4979340;28;20050;-49
2023/04/17 07:22:57;;;;;;;11.13;3.08;;;;;;;11.50;72.93;101339.88;4974631;28;20584;-54
2023/04/17 07:25:24;;;;;;;7.50;3.53;;;;;;;11.56;73.39;101351.19;4974723;28;20054;-52
2023/04/17 07:27:52;;;;;;;8.70;3.40;;;;;;;11.62;72.27;101334.84;4978364;28;20078;-54
2023/04/17 07:30:19;;;;;;;11.77;3.47;;;;;;;11.69;72.71;101347.06;4980835;28;20054;-51
2023/04/17 07:32:46;;;;;;;8.65;2.95;;;;;;;11.79;73.67;101345.47;4973493;28;20053;-53
2023/04/17 07:35:16;;;;;;;8.30;3.03;;;;;;;11.90;73.01;101345.63;4978118;28;20065;-55
2023/04/17 07:37:43;;;;;;;10.15;3.40;;;;;;;12.04;73.11;101345.78;4991753;28;20070;-54
2023/04/17 07:40:10;;;;;;;11.63;3.67;;;;;;;12.18;73.84;101355.47;4975920;28;20042;-51
2023/04/17 07:42:37;;;;;;;12.63;3.83;;;;;;;12.29;73.30;101348.69;4981016;28;20130;-56
2023/04/17 07:45:06;;;;;;;9.52;3.47;;;;;;;12.42;72.59;101360.09;4977563;28;20572;-54
2023/04/17 07:47:33;;;;;;;7.32;3.33;;;;;;;12.53;72.50;101361.94;4979622;28;20173;-51
2023/04/17 07:50:00;;;;;;;9.50;3.75;;;;;;;12.61;72.62;101370.69;4979412;28;20593;-52
2023/04/17 07:52:26;;;;;;;14.48;3.53;;;;;;;12.64;72.55;101369.84;4978387;28;20054;-55
2023/04/17 07:54:55;;;;;;;7.55;2.97;;;;;;;12.63;71.92;101373.28;4980816;28;20174;-51
2023/04/17 07:57:25;;;;;;;9.30;3.15;;;;;;;12.62;71.67;101382.81;4983982;28;20661;-50
2023/04/17 07:59:53;;;;;;;15.70;3.67;;;;;;;12.60;72.34;101385.38;4974607;28;20050;-54
2023/04/17 08:02:19;;;;;;;10.48;3.67;;;;;;;12.59;71.77;101386.25;4988047;28;20045;-55
2023/04/17 08:04:48;;;;;;;10.18;3.78;;;;;;;12.57;72.67;101393.16;5004251;28;20065;-52
2023/04/17 08:07:17;;;;;;;8.13;3.50;;;;;;;12.57;71.59;101390.56;4998897;28;20046;-54
2023/04/17 08:09:43;;;;;;;8.20;3.40;;;;;;;12.58;71.64;101387.13;5006813;28;20580;-52
2023/04/17 08:12:11;;;;;;;8.13;4.28;;;;;;;12.59;72.22;101394.06;5003537;28;20050;-51
2023/04/17 08:14:39;;;;;;;9.77;2.83;;;;;;;12.62;71.61;101388.00;5003089;28;20693;-54
2023/04/17 08:17:06;;;;;;;8.65;3.17;;;;;;;12.65;71.12;101389.75;4998151;28;20300;-53
2023/04/17 08:19:33;;;;;;;7.85;3.33;;;;;;;12.68;72.09;101387.19;5001982;28;20054;-51
2023/04/17 08:22:02;;;;;;;13.68;5.05;;;;;;;12.73;71.78;101386.38;5006180;28;20457;-51
2023/04/17 08:24:30;;;;;;;8.98;3.85;;;;;;;12.80;71.89;101387.31;5000184;28;20057;-54
2023/04/17 08:26:57;;;;;;;8.30;3.72;;;;;;;12.89;72.38;101385.66;5001747;28;20057;-51
2023/04/17 08:29:25;;;;;;;9.35;3.33;;;;;;;12.95;72.13;101390.91;4994670;28;20141;-54
2023/04/17 08:31:51;;;;;;;6.93;3.47;;;;;;;12.99;71.01;101392.69;4996275;28;20140;-53
2023/04/17 08:34:36;;;;;;;8.43;3.42;;;;;;;13.07;70.73;101391.03;5002566;28;20092;-53
2023/04/17 08:37:03;;;;;;;8.70;3.47;;;;;;;13.20;71.37;101392.00;5007726;28;20089;-53
2023/04/17 08:39:30;;;;;;;9.30;3.95;;;;;;;13.36;71.31;101397.31;4998371;28;20046;-53
2023/04/17 08:42:00;;;;;;;9.07;3.35;;;;;;;13.54;71.17;101401.81;5004540;28;20107;-52
2023/04/17 08:44:27;;;;;;;8.30;3.63;;;;;;;13.70;70.38;101399.31;5002468;28;20057;-54
2023/04/17 08:46:57;;;;;;;8.43;3.33;;;;;;;13.83;70.61;101408.94;5004652;28;20042;-54
2023/04/17 08:49:26;;;;;;;9.65;3.08;;;;;;;13.91;70.30;101410.72;5003631;28;20108;-50
2023/04/17 08:51:54;;;;;;;6.30;2.92;;;;;;;13.96;70.11;101415.09;4998435;28;20101;-54
2023/04/17 08:54:21;;;;;;;8.73;3.05;;;;;;;14.08;69.70;101409.06;5001522;28;20100;-56
2023/04/17 08:56:47;;;;;;;8.25;3.58;;;;;;;14.18;70.27;101412.56;5001230;28;20073;-56
2023/04/17 08:59:15;;;;;;;9.10;3.05;;;;;;;14.30;69.68;101408.28;5006602;28;20137;-54
2023/04/17 09:02:02;;;;;;;11.32;3.80;;;;;;;14.46;69.41;101411.81;5000685;28;20058;-53
2023/04/17 09:04:39;;;;;;;6.13;3.30;;;;;;;14.57;68.89;101404.88;4994832;28;20065;-53
2023/04/17 09:07:08;;;;;;;7.30;3.45;;;;;;;14.62;69.07;101410.97;4994569;28;20058;-51
2023/04/17 09:09:55;;;;;;;8.15;2.90;;;;;;;14.60;68.84;101412.72;4996369;28;20053;-51
2023/04/17 09:12:24;;;;;;;9.02;3.85;;;;;;;14.61;68.24;101409.25;4992158;28;20104;-52
2023/04/17 09:14:51;;;;;;;9.95;3.28;;;;;;;14.48;68.14;101412.66;4993487;28;20077;-53
2023/04/17 09:17:19;;;;;;;5.47;2.53;;;;;;;14.41;67.67;101406.56;4992547;28;20103;-53
2023/04/17 09:20:07;;;;;;;4.75;2.88;;;;;;;14.26;68.22;101407.41;4990035;28;20050;-54
2023/04/17 09:22:36;;;;;;;5.85;3.25;;;;;;;14.24;68.40;101414.31;4988055;28;20050;-53
2023/04/17 09:25:04;;;;;;;9.48;4.85;;;;;;;14.22;68.36;101421.28;4993747;28;21542;-54
2023/04/17 09:27:30;;;;;;;5.80;3.65;;;;;;;14.24;69.03;101414.31;4992789;28;20038;-52
2023/04/17 09:30:00;;;;;;;7.78;3.17;;;;;;;14.27;68.65;101419.56;4992820;28;20049;-53
2023/04/17 09:32:28;;;;;;;7.32;3.28;;;;;;;14.24;68.53;101422.16;4992176;28;20313;-52
2023/04/17 09:34:57;;;;;;;7.07;3.47;;;;;;;14.21;68.63;101415.19;4995414;28;20046;-53
2023/04/17 09:37:25;;;;;;;9.95;4.70;;;;;;;14.17;69.08;101422.97;5000356;28;20070;-52
2023/04/17 09:39:56;;;;;;;8.45;4.00;;;;;;;14.24;68.79;101419.53;4990923;28;20115;-54
2023/04/17 09:42:23;;;;;;;7.13;3.67;;;;;;;14.29;69.07;101417.84;4980837;28;20056;-53
2023/04/17 09:44:50;;;;;;;9.27;3.85;;;;;;;14.39;68.90;101424.81;4993371;28;20054;-53
2023/04/17 09:47:17;;;;;;;12.63;4.72;;;;;;;14.40;68.31;101416.13;4992233;28;20086;-52
2023/04/17 09:49:49;;;;;;;13.20;4.97;;;;;;;14.40;67.41;101416.13;4989742;28;20077;-55
2023/04/17 09:52:15;;;;;;;9.32;5.20;;;;;;;14.43;68.04;101420.50;4990338;28;20137;-53
2023/04/17 09:54:43;;;;;;;9.68;5.85;;;;;;;14.36;67.73;101424.78;4996526;28;20600;-52
2023/04/17 09:57:10;;;;;;;8.52;4.10;;;;;;;14.37;67.82;101421.34;4993406;28;20080;-55
2023/04/17 09:59:38;;;;;;;8.60;4.40;;;;;;;14.36;67.79;101422.19;4993537;28;20361;-54
2023/04/17 10:02:08;;;;;;;7.32;4.38;;;;;;;14.44;67.53;101416.13;4995644;28;20112;-52
2023/04/17 10:04:38;;;;;;;8.68;4.53;;;;;;;14.43;67.16;101417.00;5007316;28;20065;-54
2023/04/17 10:07:04;;;;;;;;;;;;;;;14.39;66.89;101409.16;5008740;28;20561;-52
2023/04/17 10:09:31;;;;;;;11.10;5.10;;;;;;;14.64;67.29;101414.47;5007318;28;19956;-53
2023/04/17 10:12:00;;;;;;;11.15;5.20;;;;;;;14.93;67.48;101409.31;5004648;28;20515;-55
2023/04/17 10:14:31;;;;;;;9.80;5.10;;;;;;;15.07;66.64;101412.81;5005914;28;20053;-53
2023/04/17 10:16:58;;;;;;;8.30;4.68;;;;;;;15.05;66.61;101409.31;5001190;28;20609;-55
2023/04/17 10:27:53;;;;;;;8.40;4.65;;;;;;;15.45;64.27;101407.56;5001382;28;20403;-56
2023/04/17 10:30:21;;;;;;;8.57;5.05;;;;;;;15.48;64.83;101402.34;4995715;28;20084;-55
2023/04/17 10:35:49;;;;;;;8.98;6.30;;;;;;;15.72;65.54;101405.78;5029159;27;20407;-53
2023/04/17 10:38:29;;;;;;;10.68;6.43;;;;;;;16.02;64.66;101410.09;5003987;28;20061;-54
2023/04/17 10:41:00;;;;;;;9.48;7.03;;;;;;;16.27;65.51;101404.75;4996989;28;20133;-54
2023/04/17 10:43:26;;;;;;;8.68;6.60;;;;;;;16.39;64.00;101414.28;5013236;28;20054;-54
2023/04/17 10:54:04;;;;;;;9.82;5.00;;;;;;;16.19;62.43;101420.44;5045780;27;21116;-58
2023/04/17 10:56:37;;;;;;;9.48;5.10;;;;;;;16.12;63.04;101424.00;5014704;28;20056;-58
2023/04/17 10:59:07;;;;;;;8.35;4.70;;;;;;;16.13;62.97;101428.34;5012672;28;20057;-54
2023/04/17 11:04:28;;;;;;;7.88;4.82;;;;;;;16.08;62.46;101432.72;5043493;28;20913;-57
2023/04/17 11:06:55;;;;;;;8.65;5.45;;;;;;;16.21;63.14;101424.81;4982885;28;20060;-58
2023/04/17 11:09:23;;;;;;;8.27;4.38;;;;;;;16.30;61.29;101430.00;4979589;28;20046;-57
2023/04/17 11:11:50;;;;;;;7.63;4.88;;;;;;;16.34;61.25;101429.09;4982983;28;20078;-58
2023/04/17 11:14:19;;;;;;;10.70;4.72;;;;;;;16.28;61.79;101431.78;4979532;28;20051;-60
2023/04/17 11:16:47;;;;;;;7.18;4.68;;;;;;;16.10;61.95;101438.78;4988717;28;20050;-58
2023/04/17 11:19:23;;;;;;;8.30;4.55;;;;;;;16.13;62.21;101437.91;4986498;28;20081;-58
2023/04/17 11:21:52;;;;;;;8.18;5.57;;;;;;;16.22;61.64;101437.00;4978366;28;20058;-59
2023/04/17 11:24:28;;;;;;;11.75;6.22;;;;;;;16.28;61.47;101435.22;4989131;28;20054;-59
2023/04/17 11:26:58;;;;;;;10.52;5.32;;;;;;;16.37;61.85;101436.94;4981410;28;20042;-59
2023/04/17 11:29:26;;;;;;;12.88;6.13;;;;;;;16.40;62.09;101436.94;4983018;28;20066;-59
2023/04/17 11:31:55;;;;;;;14.10;6.63;;;;;;;16.45;61.65;101443.00;4975989;28;20197;-60
2023/04/17 11:34:23;;;;;;;12.30;6.30;;;;;;;16.50;61.53;101431.66;4986128;28;20486;-60
2023/04/17 11:36:52;;;;;;;16.27;7.63;;;;;;;16.50;61.72;101435.16;4982619;28;20046;-60
2023/04/17 11:39:20;;;;;;;14.68;6.45;;;;;;;16.44;62.04;101438.66;4982101;28;20505;-59
2023/04/17 11:41:48;;;;;;;12.80;6.85;;;;;;;16.44;61.93;101438.66;4976875;28;20047;-59
2023/04/17 11:44:17;;;;;;;11.43;6.47;;;;;;;16.45;61.95;101435.16;4977148;28;20446;-60
2023/04/17 11:46:52;;;;;;;12.90;6.50;;;;;;;16.51;61.58;101441.25;4983466;28;20042;-58
2023/04/17 11:52:04;;;;;;;16.90;9.00;;;;;;;16.60;62.09;101438.56;5055344;28;20383;-58